createdAt,value
2019-04-05T00:02:28.713Z,8.80
2019-04-05T00:06:34.010Z,8.70
2019-04-05T00:10:39.292Z,8.70
2019-04-05T00:14:44.573Z,8.60
2019-04-05T00:18:49.854Z,8.60
2019-04-05T00:22:55.194Z,8.50
2019-04-05T00:27:00.457Z,8.50
2019-04-05T00:31:05.781Z,8.50
2019-04-05T00:35:11.138Z,8.50
2019-04-05T00:39:16.478Z,8.50
2019-04-05T00:43:21.780Z,8.50
2019-04-05T00:47:27.041Z,8.40
2019-04-05T00:51:33.420Z,8.50
2019-04-05T00:55:38.732Z,8.50
2019-04-05T00:59:44.030Z,8.50
2019-04-05T01:03:50.377Z,8.60
2019-04-05T01:07:55.813Z,8.60
2019-04-05T01:12:01.288Z,8.60
2019-04-05T01:16:06.594Z,8.70
2019-04-05T01:20:12.330Z,8.70
2019-04-05T01:24:19.269Z,8.70
2019-04-05T01:28:25.287Z,8.70
2019-04-05T01:32:30.742Z,8.70
2019-04-05T01:36:35.961Z,8.70
2019-04-05T01:40:44.007Z,8.70
2019-04-05T01:44:51.864Z,8.60
2019-04-05T01:48:57.856Z,8.60
2019-04-05T01:53:03.133Z,8.60
2019-04-05T01:57:08.411Z,8.60
2019-04-05T02:01:13.707Z,8.60
2019-04-05T02:05:19.061Z,8.50
2019-04-05T02:09:24.696Z,8.60
2019-04-05T02:13:30.036Z,8.60
2019-04-05T02:17:36.090Z,8.60
2019-04-05T02:21:41.637Z,8.50
2019-04-05T02:25:47.008Z,8.50
2019-04-05T02:29:53.366Z,8.50
2019-04-05T02:33:58.803Z,8.50
2019-04-05T02:38:04.153Z,8.50
2019-04-05T02:42:11.590Z,8.40
2019-04-05T02:46:23.931Z,8.40
2019-04-05T02:50:27.335Z,8.40
2019-04-05T02:54:34.135Z,8.20
2019-04-05T02:58:40.859Z,8.20
2019-04-05T03:02:46.518Z,8.20
2019-04-05T03:06:52.374Z,8.20
2019-04-05T03:11:18.849Z,8.30
2019-04-05T03:15:24.197Z,8.40
2019-04-05T03:19:32.632Z,8.40
2019-04-05T03:23:40.977Z,8.40
2019-04-05T03:27:46.510Z,8.40
2019-04-05T03:31:52.771Z,8.40
2019-04-05T03:35:58.421Z,8.40
2019-04-05T03:40:07.486Z,8.40
2019-04-05T03:44:13.418Z,8.40
2019-04-05T03:48:19.155Z,8.40
2019-04-05T03:52:24.620Z,8.50
2019-04-05T03:56:30.213Z,8.50
2019-04-05T04:00:35.707Z,8.50
2019-04-05T04:04:41.045Z,8.50
2019-04-05T04:08:46.481Z,8.50
2019-04-05T04:12:52.062Z,8.50
2019-04-05T04:17:11.406Z,8.50
2019-04-05T04:21:07.552Z,8.50
2019-04-05T04:25:13.180Z,8.50
2019-04-05T04:29:19.383Z,8.50
2019-04-05T04:33:24.871Z,8.50
2019-04-05T04:37:30.157Z,8.50
2019-04-05T04:41:36.006Z,8.50
2019-04-05T04:45:42.470Z,8.60
2019-04-05T04:49:47.810Z,8.60
2019-04-05T04:53:53.433Z,8.70
2019-04-05T04:57:59.260Z,8.70
2019-04-05T05:02:05.035Z,8.70
2019-04-05T05:06:10.636Z,8.80
2019-04-05T05:10:16.170Z,8.80
2019-04-05T05:14:22.113Z,8.80
2019-04-05T05:18:27.942Z,8.90
2019-04-05T05:22:33.601Z,9.00
2019-04-05T05:26:39.140Z,9.00
2019-04-05T05:30:45.806Z,9.00
2019-04-05T05:35:01.311Z,9.00
2019-04-05T05:38:58.255Z,9.10
2019-04-05T05:43:03.550Z,9.10
2019-04-05T05:47:08.893Z,9.10
2019-04-05T05:51:14.860Z,9.00
2019-04-05T05:55:20.149Z,8.90
2019-04-05T05:59:25.442Z,8.80
2019-04-05T06:03:30.837Z,8.70
2019-04-05T06:07:36.210Z,8.90
2019-04-05T06:11:41.503Z,8.90
2019-04-05T06:15:46.797Z,9.00
2019-04-05T06:19:52.082Z,9.00
2019-04-05T06:23:58.450Z,9.10
2019-04-05T06:28:03.807Z,9.10
2019-04-05T06:32:09.170Z,9.10
2019-04-05T06:36:16.234Z,9.20
2019-04-05T06:40:21.502Z,9.40
2019-04-05T06:44:28.199Z,9.40
2019-04-05T06:48:34.637Z,9.50
2019-04-05T06:52:39.973Z,9.50
2019-04-05T06:56:45.933Z,9.60
2019-04-05T07:00:57.435Z,9.70
2019-04-05T07:04:58.340Z,9.80
2019-04-05T07:09:05.749Z,9.80
2019-04-05T07:13:11.034Z,9.80
2019-04-05T07:17:16.322Z,9.70
2019-04-05T07:21:21.612Z,9.90
2019-04-05T07:25:29.296Z,10.10
2019-04-05T07:29:33.993Z,10.40
2019-04-05T07:33:39.402Z,10.80
2019-04-05T07:37:44.697Z,11.00
2019-04-05T07:41:50.058Z,11.20
2019-04-05T07:45:55.406Z,11.40
2019-04-05T07:50:00.697Z,11.40
2019-04-05T07:54:06.071Z,11.40
2019-04-05T07:58:11.372Z,11.10
2019-04-05T08:02:16.661Z,11.00
2019-04-05T08:06:21.957Z,10.90
2019-04-05T08:10:27.330Z,11.10
2019-04-05T08:14:33.201Z,11.20
2019-04-05T08:18:38.491Z,11.50
2019-04-05T08:22:43.790Z,11.90
2019-04-05T08:26:49.173Z,12.00
2019-04-05T08:30:54.509Z,12.40
2019-04-05T08:34:59.807Z,12.60
2019-04-05T08:39:07.575Z,12.60
2019-04-05T08:43:12.933Z,12.80
2019-04-05T08:47:18.232Z,12.80
2019-04-05T08:51:23.519Z,13.10
2019-04-05T08:55:28.818Z,13.40
2019-04-05T08:59:34.118Z,13.60
2019-04-05T09:03:39.411Z,14.70
2019-04-05T09:07:44.730Z,16.80
2019-04-05T09:11:50.009Z,18.50
2019-04-05T09:15:55.530Z,19.60
2019-04-05T09:20:00.883Z,19.90
2019-04-05T09:24:06.138Z,19.60
2019-04-05T09:28:11.461Z,19.30
2019-04-05T09:32:16.939Z,17.90
2019-04-05T09:36:22.216Z,17.90
2019-04-05T09:40:27.510Z,17.80
2019-04-05T09:44:32.812Z,18.00
2019-04-05T09:48:38.106Z,17.20
2019-04-05T09:52:43.400Z,16.30
2019-04-05T09:56:48.662Z,15.90
2019-04-05T10:00:54.021Z,16.90
2019-04-05T10:04:59.306Z,20.00
2019-04-05T10:09:07.478Z,24.70
2019-04-05T10:13:13.323Z,26.30
2019-04-05T10:17:18.558Z,28.00
2019-04-05T10:21:23.842Z,30.20
2019-04-05T10:25:29.167Z,30.00
2019-04-05T10:29:34.538Z,30.60
2019-04-05T10:33:39.821Z,29.80
2019-04-05T10:37:45.097Z,31.50
2019-04-05T10:42:02.636Z,33.40
2019-04-05T10:45:57.305Z,34.20
2019-04-05T10:50:03.870Z,34.20
2019-04-05T10:54:09.739Z,33.20
2019-04-05T10:58:16.195Z,32.80
2019-04-05T11:02:21.486Z,31.80
2019-04-05T11:06:26.770Z,29.10
2019-04-05T11:10:32.222Z,26.80
2019-04-05T11:14:37.530Z,23.50
2019-04-05T11:18:45.096Z,23.30
2019-04-05T11:22:50.903Z,24.20
2019-04-05T11:26:56.714Z,24.50
2019-04-05T11:31:02.072Z,25.30
2019-04-05T11:35:08.209Z,26.90
2019-04-05T11:39:13.616Z,27.10
2019-04-05T11:43:20.526Z,25.30
2019-04-05T11:47:26.572Z,24.80
2019-04-05T11:51:32.030Z,25.70
2019-04-05T11:55:37.323Z,25.80
2019-04-05T11:59:42.798Z,24.80
2019-04-05T12:03:48.085Z,23.00
2019-04-05T12:07:56.310Z,23.00
2019-04-05T12:12:00.557Z,22.60
2019-04-05T12:16:06.723Z,21.60
2019-04-05T12:20:14.183Z,20.70
2019-04-05T12:24:19.596Z,21.10
2019-04-05T12:28:24.810Z,20.90
2019-04-05T12:32:34.593Z,20.50
2019-04-05T12:36:37.397Z,19.40
2019-04-05T12:40:42.769Z,19.40
2019-04-05T12:44:48.058Z,19.60
2019-04-05T12:48:53.346Z,19.70
2019-04-05T12:52:58.618Z,19.60
2019-04-05T12:57:04.011Z,18.90
2019-04-05T13:01:09.302Z,18.90
2019-04-05T13:05:14.661Z,18.50
2019-04-05T13:09:23.070Z,18.30
2019-04-05T13:13:27.711Z,17.80
2019-04-05T13:17:34.752Z,17.70
2019-04-05T13:21:40.043Z,17.50
2019-04-05T13:25:45.331Z,18.00
2019-04-05T13:29:50.749Z,18.70
2019-04-05T13:33:56.037Z,19.20
2019-04-05T13:38:01.415Z,18.80
2019-04-05T13:42:06.899Z,18.20
2019-04-05T13:46:22.052Z,18.40
2019-04-05T13:50:19.505Z,18.50
2019-04-05T13:54:25.074Z,18.40
2019-04-05T13:58:30.346Z,18.60
2019-04-05T14:02:36.705Z,18.70
2019-04-05T14:06:41.990Z,18.50
2019-04-05T14:10:47.286Z,18.20
2019-04-05T14:14:52.689Z,17.80
2019-04-05T14:18:58.069Z,18.10
2019-04-05T14:23:03.475Z,18.40
2019-04-05T14:27:08.856Z,18.10
2019-04-05T14:31:15.782Z,17.60
2019-04-05T14:35:24.476Z,17.20
2019-04-05T14:39:28.690Z,17.10
2019-04-05T14:43:33.995Z,16.90
2019-04-05T14:47:41.455Z,16.60
2019-04-05T14:51:53.765Z,16.30
2019-04-05T14:55:53.727Z,16.20
2019-04-05T14:59:59.117Z,15.90
2019-04-05T15:04:04.395Z,15.90
2019-04-05T15:08:09.732Z,15.80
2019-04-05T15:12:16.062Z,15.90
2019-04-05T15:16:23.435Z,15.80
2019-04-05T15:20:28.274Z,15.70
2019-04-05T15:24:33.550Z,15.70
2019-04-05T15:28:39.119Z,15.40
2019-04-05T15:32:44.813Z,15.10
2019-04-05T15:36:50.154Z,15.00
2019-04-05T15:40:55.441Z,14.80
2019-04-05T15:45:01.702Z,14.80
2019-04-05T15:49:08.939Z,14.70
2019-04-05T15:53:14.286Z,14.60
2019-04-05T15:57:19.702Z,14.60
2019-04-05T16:01:25.136Z,14.40
2019-04-05T16:05:30.660Z,14.20
2019-04-05T16:09:36.082Z,14.10
2019-04-05T16:13:41.374Z,14.10
2019-04-05T16:17:46.671Z,14.10
2019-04-05T16:21:51.975Z,14.20
2019-04-05T16:25:57.297Z,14.20
2019-04-05T16:30:02.647Z,14.20
2019-04-05T16:34:07.926Z,14.10
2019-04-05T16:38:13.215Z,14.00
2019-04-05T16:42:18.512Z,14.00
2019-04-05T16:46:24.006Z,13.90
2019-04-05T16:50:29.278Z,14.00
2019-04-05T16:54:34.565Z,14.00
2019-04-05T16:58:39.869Z,13.90
2019-04-05T17:02:45.230Z,13.80
2019-04-05T17:06:50.948Z,13.60
2019-04-05T17:10:57.518Z,13.40
2019-04-05T17:15:02.828Z,13.30
2019-04-05T17:19:08.185Z,13.20
2019-04-05T17:23:13.478Z,13.10
2019-04-05T17:27:18.799Z,13.00
2019-04-05T17:31:25.251Z,12.90
2019-04-05T17:35:30.524Z,12.80
2019-04-05T17:39:35.806Z,12.70
2019-04-05T17:43:41.191Z,12.60
2019-04-05T17:47:46.504Z,12.60
2019-04-05T17:51:51.891Z,12.50
2019-04-05T17:55:59.011Z,12.40
2019-04-05T18:00:13.353Z,12.30
2019-04-05T18:04:18.847Z,12.20
2019-04-05T18:08:24.185Z,12.00
2019-04-05T18:12:29.480Z,11.90
2019-04-05T18:16:34.806Z,11.70
2019-04-05T18:20:40.169Z,11.60
2019-04-05T18:24:45.499Z,11.40
2019-04-05T18:28:50.825Z,11.30
2019-04-05T18:32:56.139Z,11.20
2019-04-05T18:37:01.430Z,11.10
2019-04-05T18:41:06.963Z,11.00
2019-04-05T18:45:12.384Z,10.90
2019-04-05T18:49:18.292Z,10.80
2019-04-05T18:53:36.549Z,10.70
2019-04-05T18:57:31.024Z,10.60
2019-04-05T19:01:36.399Z,10.60
2019-04-05T19:05:41.699Z,10.60
2019-04-05T19:09:46.992Z,10.50
2019-04-05T19:14:00.874Z,10.40
2019-04-05T19:17:59.273Z,10.20
2019-04-05T19:22:04.838Z,10.10
2019-04-05T19:26:10.760Z,10.00
2019-04-05T19:50:50.898Z,9.80
2019-04-05T19:54:56.189Z,9.70
2019-04-05T19:59:01.505Z,9.70
2019-04-05T20:03:06.876Z,9.80
2019-04-05T20:07:12.207Z,9.80
2019-04-05T20:11:18.046Z,9.70
2019-04-05T20:15:23.480Z,9.60
2019-04-05T20:19:29.290Z,9.50
2019-04-05T20:23:34.662Z,9.30
2019-04-05T20:27:40.029Z,9.20
2019-04-05T20:31:45.327Z,9.00
2019-04-05T20:35:50.609Z,8.80
2019-04-05T20:39:55.910Z,8.60
2019-04-05T20:44:02.188Z,8.40
2019-04-05T20:48:20.500Z,8.30
2019-04-05T20:52:25.887Z,8.20
2019-04-05T20:56:31.109Z,8.10
2019-04-05T21:00:36.398Z,8.10
2019-04-05T21:04:41.693Z,8.10
2019-04-05T21:08:47.010Z,8.00
2019-04-05T21:12:52.302Z,7.80
2019-04-05T21:16:57.742Z,7.70
2019-04-05T21:21:03.042Z,7.60
2019-04-05T21:25:08.804Z,7.50
2019-04-05T21:29:14.089Z,7.50
2019-04-05T21:33:19.390Z,7.40
2019-04-05T21:37:24.657Z,7.40
2019-04-05T21:41:29.959Z,7.40
2019-04-05T21:45:35.286Z,7.30
2019-04-05T21:49:40.570Z,7.20
2019-04-05T21:53:47.407Z,7.20
2019-04-05T21:57:52.882Z,7.20
2019-04-05T22:01:58.248Z,7.10
2019-04-05T22:06:03.960Z,7.10
2019-04-05T22:10:09.481Z,7.00
2019-04-05T22:14:14.637Z,6.90
2019-04-05T22:18:19.637Z,6.90
2019-04-05T22:22:27.285Z,6.80
2019-04-05T22:26:31.866Z,6.80
2019-04-05T22:30:37.232Z,6.70
2019-04-05T22:34:42.554Z,6.60
2019-04-05T22:38:47.829Z,6.50
2019-04-05T22:42:53.141Z,6.50
2019-04-05T22:46:58.150Z,6.50
2019-04-05T22:51:03.160Z,6.60
2019-04-05T22:55:11.716Z,6.50
2019-04-05T22:59:15.129Z,6.50
2019-04-05T23:03:20.417Z,6.50
2019-04-05T23:07:25.432Z,6.40
2019-04-05T23:11:30.726Z,6.40
2019-04-05T23:15:35.754Z,6.30
2019-04-05T23:19:40.822Z,6.20
2019-04-05T23:23:45.811Z,6.20
2019-04-05T23:27:50.909Z,6.20
2019-04-05T23:31:55.917Z,6.10
2019-04-05T23:36:00.990Z,6.00
2019-04-05T23:40:06.849Z,5.90
2019-04-05T23:44:13.664Z,5.90
2019-04-05T23:48:18.966Z,5.90
2019-04-05T23:52:24.250Z,5.80
2019-04-05T23:56:29.295Z,5.90
